KJAC Airport Information

Runway Information
Runway 01 Length 6300 ft width 150 ft
Elevation 6413 ft Threshold 0 ft Heading 20
Runway 19 Length 6300 ft Width 150 ft
Elevation 6451 ft Threshold 0 ft Heading 200
Airport Frequencies
Type ATIS Name ATIS Frequency 120.625 MHZ
Type AWOS Name AWOS 3 Frequency 135.175 MHZ
Type CNTR Name SALT LAKE Frequency 133.25 MHZ
Type CTAF Name CTAF Frequency 118.075 MHZ
Type GND Name GND Frequency 124.55 MHZ
Type RDO Name CASPER RDO Frequency 122.05 MHZ
Type TWR Name TWR Frequency 118.075 MHZ
Type UNIC Name UNICOM Frequency 122.95 MHZ
Airport Navaids
Type VOR-DME Name Jackson Frequency 115400 KHZ
Airport Weather Information & NOTAM
ADDS - METARS form results

(2129 UTC 23 February 2019)
Data provider http://aviationweather.gov/metar/data/
 
METAR text: KJAC 232118Z 00000KT 1SM -SN BKN020 OVC028 M03/M09 A2999 RMK AO2 P0000
Conditions at: KJAC (JACKSON , WY, US) observed 2118 UTC 23 February 2019
Temperature: -3.0°C (27°F)
Dewpoint: -9.0°C (16°F) [RH = 63%]
Pressure (altimeter): 29.99 inches Hg (1015.7 mb)
Winds: calm
Visibility: 1.00 miles (1.61 km)
Ceiling: 2000 feet AGL
Clouds: broken clouds at 2000 feet AGL
overcast cloud deck at 2800 feet AGL
Weather: -SN  (light snow)

METAR text: KJAC 232108Z 00000KT 3/4SM -SN OVC024 M04/M10 A2999 RMK AO2 P0000
Conditions at: KJAC (JACKSON , WY, US) observed 2108 UTC 23 February 2019
Temperature: -4.0°C (25°F)
Dewpoint: -10.0°C (14°F) [RH = 63%]
Pressure (altimeter): 29.99 inches Hg (1015.7 mb)
Winds: calm
Visibility: 0.75 miles (1.21 km)
Ceiling: 2400 feet AGL
Clouds: overcast cloud deck at 2400 feet AGL
Weather: -SN  (light snow)

METAR text: KJAC 232056Z 00000KT 1SM -SN OVC026 M04/M11 A2999 RMK AO2 SLP250 P0000 60001 T10391111 58008
Conditions at: KJAC (JACKSON , WY, US) observed 2056 UTC 23 February 2019
Temperature: -3.9°C (25°F)
Dewpoint: -11.1°C (12°F) [RH = 57%]
Pressure (altimeter): 29.99 inches Hg (1015.7 mb)
[Sea-level pressure: 1025.0 mb]
Winds: calm
Visibility: 1.00 miles (1.61 km)
Ceiling: 2600 feet AGL
Clouds: overcast cloud deck at 2600 feet AGL
Weather: -SN  (light snow)

METAR text: KJAC 232043Z 00000KT 1 3/4SM -SN OVC026 M04/M11 A2999 RMK AO2 P0000
Conditions at: KJAC (JACKSON , WY, US) observed 2043 UTC 23 February 2019
Temperature: -4.0°C (25°F)
Dewpoint: -11.0°C (12°F) [RH = 58%]
Pressure (altimeter): 29.99 inches Hg (1015.7 mb)
Winds: calm
Visibility: 1.75 miles (2.82 km)
Ceiling: 2600 feet AGL
Clouds: overcast cloud deck at 2600 feet AGL
Weather: -SN  (light snow)

Forecast for: KJAC (JACKSON , WY, US)
Text: KJAC 232044Z 2321/2418 02004KT 3SM -SN OVC025
Forecast period: 2100 to 2300 UTC 23 February 2019
Forecast type: FROM: standard forecast or significant change
Winds: from the NNE (20 degrees) at 5 MPH (4 knots; 2.1 m/s)
Visibility: 3 miles (5 km)
Ceiling: 2500 feet AGL
Clouds: overcast cloud deck at 2500 feet AGL
Weather: -SN  (light snow)
Text: TEMPO 2321/2323 1SM -SN OVC018
Forecast period: 2100 to 2300 UTC 23 February 2019
Forecast type: TEMPORARY: The following changes expected for less than half the time period
Visibility: 1.00 miles (1.61 km)
Ceiling: 1800 feet AGL
Clouds: overcast cloud deck at 1800 feet AGL
Weather: -SN  (light snow)
Text: FM232300 19010KT 1SM -SN OVC015
Forecast period: 2300 UTC 23 February 2019 to 0300 UTC 24 February 2019
Forecast type: FROM: standard forecast or significant change
Winds: from the S (190 degrees) at 12 MPH (10 knots; 5.1 m/s)
Visibility: 1.00 miles (1.61 km)
Ceiling: 1500 feet AGL
Clouds: overcast cloud deck at 1500 feet AGL
Weather: -SN  (light snow)
Text: FM240300 19015G25KT 1SM -SN BLSN OVC013
Forecast period: 0300 to 1600 UTC 24 February 2019
Forecast type: FROM: standard forecast or significant change
Winds: from the S (190 degrees) at 17 MPH (15 knots; 7.7 m/s)
gusting to 29 MPH (25 knots; 12.9 m/s)
Visibility: 1.00 miles (1.61 km)
Ceiling: 1300 feet AGL
Clouds: overcast cloud deck at 1300 feet AGL
Weather: -SN BLSN  (light snow, blowing snow)
Text: FM241600 20015G25KT 3/4SM -SN BLSN OVC009 AMD LTD TO CLD VIS AND WIND
Forecast period: 1600 to 1800 UTC 24 February 2019
Forecast type: FROM: standard forecast or significant change
Winds: from the SSW (200 degrees) at 17 MPH (15 knots; 7.7 m/s)
gusting to 29 MPH (25 knots; 12.9 m/s)
Visibility: 0.75 miles (1.21 km)
Ceiling: 900 feet AGL
Clouds: overcast cloud deck at 900 feet AGL
Weather: -SN BLSN  (light snow, blowing snow)